sensor_id;sensor_type;location;lat;lon;timestamp;pressure;altitude;pressure_sealevel;temperature;humidity
71105;BME280;58760;48.716;8.962;2022-08-01T00:02:05;96536.22;;;19.24;61.90
71105;BME280;58760;48.716;8.962;2022-08-01T00:04:31;96543.69;;;19.22;61.92
71105;BME280;58760;48.716;8.962;2022-08-01T00:06:56;96537.59;;;19.15;62.95
71105;BME280;58760;48.716;8.962;2022-08-01T00:09:21;96540.13;;;19.10;62.47
71105;BME280;58760;48.716;8.962;2022-08-01T00:11:47;96540.19;;;19.03;63.14
71105;BME280;58760;48.716;8.962;2022-08-01T00:14:12;96545.44;;;18.98;63.00
71105;BME280;58760;48.716;8.962;2022-08-01T00:16:38;96540.50;;;18.95;63.44
71105;BME280;58760;48.716;8.962;2022-08-01T00:19:03;96533.56;;;18.88;62.32
71105;BME280;58760;48.716;8.962;2022-08-01T00:21:29;96542.09;;;18.85;63.15
71105;BME280;58760;48.716;8.962;2022-08-01T00:23:54;96547.91;;;18.82;63.82
71105;BME280;58760;48.716;8.962;2022-08-01T00:26:20;96545.44;;;18.80;63.89
71105;BME280;58760;48.716;8.962;2022-08-01T00:28:45;96545.06;;;18.76;63.72
71105;BME280;58760;48.716;8.962;2022-08-01T00:31:10;96551.50;;;18.75;62.12
71105;BME280;58760;48.716;8.962;2022-08-01T00:33:36;96555.28;;;18.86;60.71
71105;BME280;58760;48.716;8.962;2022-08-01T00:36:01;96556.03;;;18.93;60.32
71105;BME280;58760;48.716;8.962;2022-08-01T00:38:27;96557.91;;;18.93;59.98
71105;BME280;58760;48.716;8.962;2022-08-01T00:40:52;96553.72;;;18.97;60.55
71105;BME280;58760;48.716;8.962;2022-08-01T00:43:18;96555.22;;;18.93;60.43
71105;BME280;58760;48.716;8.962;2022-08-01T00:45:43;96553.13;;;18.95;60.59
71105;BME280;58760;48.716;8.962;2022-08-01T00:48:09;96560.13;;;18.96;60.28
71105;BME280;58760;48.716;8.962;2022-08-01T00:50:34;96552.63;;;19.04;59.34
71105;BME280;58760;48.716;8.962;2022-08-01T00:53:00;96559.69;;;19.17;58.83
71105;BME280;58760;48.716;8.962;2022-08-01T00:55:27;96557.91;;;19.11;58.83
71105;BME280;58760;48.716;8.962;2022-08-01T00:57:53;96557.84;;;19.17;58.90
71105;BME280;58760;48.716;8.962;2022-08-01T01:00:19;96556.72;;;19.07;59.59
71105;BME280;58760;48.716;8.962;2022-08-01T01:02:45;96558.41;;;19.38;58.53
71105;BME280;58760;48.716;8.962;2022-08-01T01:05:10;96556.34;;;19.03;59.49
71105;BME280;58760;48.716;8.962;2022-08-01T01:10:54;96555.59;;;18.96;59.91
71105;BME280;58760;48.716;8.962;2022-08-01T01:13:47;96561.72;;;18.85;60.12
71105;BME280;58760;48.716;8.962;2022-08-01T01:16:15;96569.56;;;18.68;60.50
71105;BME280;58760;48.716;8.962;2022-08-01T01:18:47;96560.38;;;18.94;59.88
71105;BME280;58760;48.716;8.962;2022-08-01T01:23:45;96565.44;;;19.02;59.53
71105;BME280;58760;48.716;8.962;2022-08-01T01:29:02;96566.13;;;18.98;59.52
71105;BME280;58760;48.716;8.962;2022-08-01T01:31:31;96574.06;;;19.11;59.53
71105;BME280;58760;48.716;8.962;2022-08-01T01:33:59;96576.66;;;18.99;59.06
71105;BME280;58760;48.716;8.962;2022-08-01T01:36:28;96560.69;;;19.04;59.51
71105;BME280;58760;48.716;8.962;2022-08-01T01:38:55;96564.19;;;18.87;60.05
71105;BME280;58760;48.716;8.962;2022-08-01T01:41:22;96570.84;;;18.84;59.94
71105;BME280;58760;48.716;8.962;2022-08-01T01:43:49;96570.47;;;18.80;60.25
71105;BME280;58760;48.716;8.962;2022-08-01T01:46:19;96579.22;;;18.76;60.75
71105;BME280;58760;48.716;8.962;2022-08-01T01:48:47;96578.22;;;18.70;60.69
71105;BME280;58760;48.716;8.962;2022-08-01T01:51:15;96576.41;;;18.64;61.14
71105;BME280;58760;48.716;8.962;2022-08-01T01:53:41;96572.91;;;18.64;61.56
71105;BME280;58760;48.716;8.962;2022-08-01T01:56:09;96575.81;;;18.62;61.43
71105;BME280;58760;48.716;8.962;2022-08-01T01:58:35;96576.03;;;18.61;61.59
71105;BME280;58760;48.716;8.962;2022-08-01T02:01:04;96572.13;;;18.57;62.71
71105;BME280;58760;48.716;8.962;2022-08-01T02:03:31;96575.06;;;18.55;62.47
71105;BME280;58760;48.716;8.962;2022-08-01T02:05:57;96566.63;;;18.52;62.49
71105;BME280;58760;48.716;8.962;2022-08-01T02:08:24;96576.53;;;18.51;62.42
71105;BME280;58760;48.716;8.962;2022-08-01T02:10:51;96569.44;;;18.57;62.31
71105;BME280;58760;48.716;8.962;2022-08-01T02:13:38;96575.00;;;18.62;62.38
71105;BME280;58760;48.716;8.962;2022-08-01T02:16:04;96577.13;;;18.53;61.88
71105;BME280;58760;48.716;8.962;2022-08-01T02:18:30;96575.50;;;18.52;62.26
71105;BME280;58760;48.716;8.962;2022-08-01T02:20:57;96575.81;;;18.62;61.74
71105;BME280;58760;48.716;8.962;2022-08-01T02:23:28;96583.91;;;18.62;61.67
71105;BME280;58760;48.716;8.962;2022-08-01T02:25:57;96574.88;;;18.75;61.29
71105;BME280;58760;48.716;8.962;2022-08-01T02:28:32;96572.31;;;18.80;60.52
71105;BME280;58760;48.716;8.962;2022-08-01T02:31:07;96582.78;;;18.88;60.69
71105;BME280;58760;48.716;8.962;2022-08-01T02:33:42;96579.59;;;18.98;60.48
71105;BME280;58760;48.716;8.962;2022-08-01T02:36:08;96584.66;;;18.88;60.73
71105;BME280;58760;48.716;8.962;2022-08-01T02:38:38;96578.91;;;18.84;60.85
71105;BME280;58760;48.716;8.962;2022-08-01T02:41:07;96582.09;;;18.74;61.54
71105;BME280;58760;48.716;8.962;2022-08-01T02:43:36;96584.59;;;18.76;61.60
71105;BME280;58760;48.716;8.962;2022-08-01T02:46:04;96585.44;;;18.70;62.07
71105;BME280;58760;48.716;8.962;2022-08-01T02:48:33;96591.53;;;18.84;61.54
71105;BME280;58760;48.716;8.962;2022-08-01T02:51:01;96592.00;;;18.99;61.35
71105;BME280;58760;48.716;8.962;2022-08-01T02:53:30;96595.78;;;18.91;61.40
71105;BME280;58760;48.716;8.962;2022-08-01T02:55:57;96596.25;;;18.88;62.07
71105;BME280;58760;48.716;8.962;2022-08-01T02:58:23;96591.25;;;18.92;61.84
71105;BME280;58760;48.716;8.962;2022-08-01T03:00:49;96588.84;;;18.84;62.28
71105;BME280;58760;48.716;8.962;2022-08-01T03:03:15;96595.75;;;18.73;62.79
71105;BME280;58760;48.716;8.962;2022-08-01T03:05:43;96596.09;;;19.01;62.51
71105;BME280;58760;48.716;8.962;2022-08-01T03:08:10;96592.72;;;19.06;62.74
71105;BME280;58760;48.716;8.962;2022-08-01T03:10:38;96584.72;;;19.17;62.76
71105;BME280;58760;48.716;8.962;2022-08-01T03:13:06;96588.25;;;19.00;63.74
71105;BME280;58760;48.716;8.962;2022-08-01T03:15:35;96592.41;;;18.96;63.45
71105;BME280;58760;48.716;8.962;2022-08-01T03:18:04;96585.09;;;19.03;63.56
71105;BME280;58760;48.716;8.962;2022-08-01T03:20:32;96582.13;;;19.11;63.36
71105;BME280;58760;48.716;8.962;2022-08-01T03:22:59;96589.00;;;19.07;63.81
71105;BME280;58760;48.716;8.962;2022-08-01T03:25:27;96584.88;;;19.22;63.36
71105;BME280;58760;48.716;8.962;2022-08-01T03:27:57;96588.53;;;19.10;63.69
71105;BME280;58760;48.716;8.962;2022-08-01T03:30:23;96590.19;;;19.11;64.04
71105;BME280;58760;48.716;8.962;2022-08-01T03:32:50;96592.22;;;18.97;64.28
71105;BME280;58760;48.716;8.962;2022-08-01T03:35:16;96589.00;;;19.07;64.50
71105;BME280;58760;48.716;8.962;2022-08-01T03:37:45;96587.47;;;18.93;64.70
71105;BME280;58760;48.716;8.962;2022-08-01T03:40:33;96595.03;;;18.84;64.93
71105;BME280;58760;48.716;8.962;2022-08-01T03:43:05;96593.38;;;18.83;65.50
71105;BME280;58760;48.716;8.962;2022-08-01T03:45:35;96589.66;;;18.84;65.34
71105;BME280;58760;48.716;8.962;2022-08-01T03:48:06;96592.88;;;18.74;65.57
71105;BME280;58760;48.716;8.962;2022-08-01T03:50:35;96583.72;;;18.57;65.92
71105;BME280;58760;48.716;8.962;2022-08-01T03:53:03;96594.09;;;18.54;66.50
71105;BME280;58760;48.716;8.962;2022-08-01T03:55:30;96597.63;;;18.48;66.11
71105;BME280;58760;48.716;8.962;2022-08-01T03:57:58;96595.19;;;18.46;66.69
71105;BME280;58760;48.716;8.962;2022-08-01T04:00:25;96593.72;;;18.44;67.01
71105;BME280;58760;48.716;8.962;2022-08-01T04:02:51;96592.66;;;18.51;66.36
71105;BME280;58760;48.716;8.962;2022-08-01T04:05:17;96595.16;;;18.53;65.92
71105;BME280;58760;48.716;8.962;2022-08-01T04:07:50;96592.59;;;18.58;66.38
71105;BME280;58760;48.716;8.962;2022-08-01T04:10:27;96588.72;;;18.54;66.51
71105;BME280;58760;48.716;8.962;2022-08-01T04:12:52;96593.53;;;18.45;66.61
71105;BME280;58760;48.716;8.962;2022-08-01T04:15:18;96594.53;;;18.51;66.34
71105;BME280;58760;48.716;8.962;2022-08-01T04:17:45;96594.91;;;18.54;66.53
71105;BME280;58760;48.716;8.962;2022-08-01T04:20:11;96598.88;;;18.52;66.37
71105;BME280;58760;48.716;8.962;2022-08-01T04:22:38;96601.56;;;18.52;66.81
71105;BME280;58760;48.716;8.962;2022-08-01T04:25:05;96594.56;;;18.44;67.16
71105;BME280;58760;48.716;8.962;2022-08-01T04:27:42;96604.53;;;18.37;66.98
71105;BME280;58760;48.716;8.962;2022-08-01T04:30:11;96609.97;;;18.30;67.37
71105;BME280;58760;48.716;8.962;2022-08-01T04:32:38;96614.09;;;18.33;67.55
71105;BME280;58760;48.716;8.962;2022-08-01T04:35:07;96620.31;;;18.34;67.83
71105;BME280;58760;48.716;8.962;2022-08-01T04:37:35;96611.13;;;18.41;67.61
71105;BME280;58760;48.716;8.962;2022-08-01T04:40:04;96611.13;;;18.41;67.82
71105;BME280;58760;48.716;8.962;2022-08-01T04:42:31;96608.88;;;18.38;68.26
71105;BME280;58760;48.716;8.962;2022-08-01T04:44:57;96611.13;;;18.41;68.41
71105;BME280;58760;48.716;8.962;2022-08-01T04:47:25;96603.25;;;18.46;68.17
71105;BME280;58760;48.716;8.962;2022-08-01T04:49:50;96606.69;;;18.53;68.00
71105;BME280;58760;48.716;8.962;2022-08-01T04:52:16;96601.69;;;18.57;68.15
71105;BME280;58760;48.716;8.962;2022-08-01T04:54:43;96601.19;;;18.66;67.88
71105;BME280;58760;48.716;8.962;2022-08-01T04:57:08;96608.97;;;18.56;69.90
71105;BME280;58760;48.716;8.962;2022-08-01T04:59:35;96606.53;;;18.48;70.43
71105;BME280;58760;48.716;8.962;2022-08-01T05:04:36;96608.00;;;18.19;70.11
71105;BME280;58760;48.716;8.962;2022-08-01T05:07:02;96601.47;;;18.09;70.42
71105;BME280;58760;48.716;8.962;2022-08-01T05:09:27;96611.47;;;17.95;70.50
71105;BME280;58760;48.716;8.962;2022-08-01T05:11:52;96608.78;;;17.95;70.66
71105;BME280;58760;48.716;8.962;2022-08-01T05:14:18;96609.22;;;17.92;71.78
71105;BME280;58760;48.716;8.962;2022-08-01T05:16:44;96609.66;;;17.89;71.56
71105;BME280;58760;48.716;8.962;2022-08-01T05:19:11;96600.78;;;17.89;71.75
71105;BME280;58760;48.716;8.962;2022-08-01T05:21:36;96604.72;;;17.86;72.46
71105;BME280;58760;48.716;8.962;2022-08-01T05:24:03;96609.69;;;17.83;73.51
71105;BME280;58760;48.716;8.962;2022-08-01T05:26:29;96605.75;;;17.85;73.86
71105;BME280;58760;48.716;8.962;2022-08-01T05:28:54;96599.16;;;17.88;72.62
71105;BME280;58760;48.716;8.962;2022-08-01T05:31:20;96600.72;;;17.95;72.87
71105;BME280;58760;48.716;8.962;2022-08-01T05:33:45;96609.41;;;17.97;73.15
71105;BME280;58760;48.716;8.962;2022-08-01T05:36:10;96610.22;;;17.98;73.57
71105;BME280;58760;48.716;8.962;2022-08-01T05:38:36;96617.19;;;18.05;72.38
71105;BME280;58760;48.716;8.962;2022-08-01T05:41:01;96616.09;;;18.13;71.20
71105;BME280;58760;48.716;8.962;2022-08-01T05:43:26;96614.19;;;18.20;71.57
71105;BME280;58760;48.716;8.962;2022-08-01T05:45:52;96613.38;;;18.19;73.70
71105;BME280;58760;48.716;8.962;2022-08-01T05:48:17;96610.78;;;18.31;74.38
71105;BME280;58760;48.716;8.962;2022-08-01T05:50:42;96615.28;;;18.37;71.91
71105;BME280;58760;48.716;8.962;2022-08-01T05:53:08;96612.25;;;18.58;71.27
71105;BME280;58760;48.716;8.962;2022-08-01T05:55:35;96617.94;;;18.68;71.01
71105;BME280;58760;48.716;8.962;2022-08-01T05:58:01;96617.50;;;18.71;71.57
71105;BME280;58760;48.716;8.962;2022-08-01T06:00:26;96615.78;;;18.77;71.37
71105;BME280;58760;48.716;8.962;2022-08-01T06:02:52;96619.09;;;18.79;71.91
71105;BME280;58760;48.716;8.962;2022-08-01T06:05:17;96617.38;;;18.85;73.08
71105;BME280;58760;48.716;8.962;2022-08-01T06:07:43;96608.03;;;18.87;72.26
71105;BME280;58760;48.716;8.962;2022-08-01T06:10:08;96610.66;;;18.94;73.27
71105;BME280;58760;48.716;8.962;2022-08-01T06:12:35;96612.53;;;19.11;71.33
71105;BME280;58760;48.716;8.962;2022-08-01T06:15:00;96604.53;;;19.23;71.35
71105;BME280;58760;48.716;8.962;2022-08-01T06:17:26;96606.47;;;19.34;70.19
71105;BME280;58760;48.716;8.962;2022-08-01T06:19:51;96614.69;;;19.39;71.02
71105;BME280;58760;48.716;8.962;2022-08-01T06:22:20;96606.81;;;19.44;70.94
71105;BME280;58760;48.716;8.962;2022-08-01T06:24:45;96617.50;;;19.51;71.01
71105;BME280;58760;48.716;8.962;2022-08-01T06:27:10;96619.03;;;19.58;70.13
71105;BME280;58760;48.716;8.962;2022-08-01T06:29:36;96620.44;;;19.61;69.58
71105;BME280;58760;48.716;8.962;2022-08-01T06:32:01;96614.38;;;19.65;70.42
71105;BME280;58760;48.716;8.962;2022-08-01T06:34:26;96621.81;;;19.81;68.80
71105;BME280;58760;48.716;8.962;2022-08-01T06:36:52;96616.56;;;19.87;69.13
71105;BME280;58760;48.716;8.962;2022-08-01T06:39:17;96617.16;;;19.89;69.87
71105;BME280;58760;48.716;8.962;2022-08-01T06:41:43;96616.38;;;20.00;68.82
71105;BME280;58760;48.716;8.962;2022-08-01T06:44:11;96617.56;;;20.04;69.01
71105;BME280;58760;48.716;8.962;2022-08-01T06:46:37;96617.03;;;20.25;67.42
71105;BME280;58760;48.716;8.962;2022-08-01T06:49:03;96614.13;;;20.26;67.98
71105;BME280;58760;48.716;8.962;2022-08-01T06:51:28;96622.94;;;20.33;68.10
71105;BME280;58760;48.716;8.962;2022-08-01T06:53:54;96617.00;;;20.66;65.78
71105;BME280;58760;48.716;8.962;2022-08-01T06:56:19;96618.28;;;20.75;65.74
71105;BME280;58760;48.716;8.962;2022-08-01T06:58:44;96613.00;;;20.69;66.92
71105;BME280;58760;48.716;8.962;2022-08-01T07:01:10;96618.19;;;20.94;64.66
71105;BME280;58760;48.716;8.962;2022-08-01T07:03:36;96620.50;;;21.25;63.10
71105;BME280;58760;48.716;8.962;2022-08-01T07:06:02;96608.50;;;21.44;62.20
71105;BME280;58760;48.716;8.962;2022-08-01T07:08:27;96609.44;;;21.38;62.38
71105;BME280;58760;48.716;8.962;2022-08-01T07:10:52;96612.38;;;21.48;62.20
71105;BME280;58760;48.716;8.962;2022-08-01T07:13:18;96616.38;;;21.46;62.00
71105;BME280;58760;48.716;8.962;2022-08-01T07:15:47;96611.47;;;21.71;59.76
71105;BME280;58760;48.716;8.962;2022-08-01T07:18:12;96617.34;;;21.68;60.91
71105;BME280;58760;48.716;8.962;2022-08-01T07:20:38;96615.47;;;21.68;60.78
71105;BME280;58760;48.716;8.962;2022-08-01T07:23:03;96612.66;;;21.63;61.06
71105;BME280;58760;48.716;8.962;2022-08-01T07:25:29;96612.63;;;21.75;59.83
71105;BME280;58760;48.716;8.962;2022-08-01T07:27:54;96613.53;;;21.80;59.89
71105;BME280;58760;48.716;8.962;2022-08-01T07:30:20;96603.38;;;21.99;60.46
71105;BME280;58760;48.716;8.962;2022-08-01T07:32:45;96603.34;;;22.11;60.20
71105;BME280;58760;48.716;8.962;2022-08-01T07:35:11;96609.38;;;22.18;58.56
71105;BME280;58760;48.716;8.962;2022-08-01T07:37:36;96604.38;;;22.10;59.12
71105;BME280;58760;48.716;8.962;2022-08-01T07:40:02;96598.06;;;22.21;59.02
71105;BME280;58760;48.716;8.962;2022-08-01T07:42:29;96598.44;;;22.58;58.08
71105;BME280;58760;48.716;8.962;2022-08-01T07:44:54;96598.50;;;22.79;57.90
71105;BME280;58760;48.716;8.962;2022-08-01T07:47:26;96589.56;;;22.96;56.60
71105;BME280;58760;48.716;8.962;2022-08-01T07:49:52;96595.94;;;23.06;57.33
71105;BME280;58760;48.716;8.962;2022-08-01T07:52:23;96591.97;;;23.14;56.59
71105;BME280;58760;48.716;8.962;2022-08-01T07:54:48;96584.09;;;23.12;56.02
71105;BME280;58760;48.716;8.962;2022-08-01T07:57:14;96591.34;;;23.07;56.36
71105;BME280;58760;48.716;8.962;2022-08-01T07:59:39;96589.66;;;23.22;56.38
71105;BME280;58760;48.716;8.962;2022-08-01T08:02:05;96594.25;;;23.22;56.44
71105;BME280;58760;48.716;8.962;2022-08-01T08:04:30;96597.03;;;23.27;56.85
71105;BME280;58760;48.716;8.962;2022-08-01T08:06:56;96593.88;;;23.35;55.39
71105;BME280;58760;48.716;8.962;2022-08-01T08:09:21;96591.31;;;23.45;54.54
71105;BME280;58760;48.716;8.962;2022-08-01T08:11:46;96580.81;;;23.49;54.93
71105;BME280;58760;48.716;8.962;2022-08-01T08:14:12;96599.34;;;23.57;54.59
71105;BME280;58760;48.716;8.962;2022-08-01T08:16:37;96586.34;;;23.37;55.10
71105;BME280;58760;48.716;8.962;2022-08-01T08:19:03;96585.66;;;23.47;55.11
71105;BME280;58760;48.716;8.962;2022-08-01T08:21:29;96597.00;;;23.65;54.37
71105;BME280;58760;48.716;8.962;2022-08-01T08:23:55;96589.88;;;23.59;54.54
71105;BME280;58760;48.716;8.962;2022-08-01T08:26:39;96587.84;;;23.71;53.90
71105;BME280;58760;48.716;8.962;2022-08-01T08:29:05;96589.19;;;23.95;53.34
71105;BME280;58760;48.716;8.962;2022-08-01T08:31:30;96581.69;;;24.03;53.09
71105;BME280;58760;48.716;8.962;2022-08-01T08:33:56;96584.63;;;24.01;52.48
71105;BME280;58760;48.716;8.962;2022-08-01T08:36:21;96574.31;;;23.98;53.37
71105;BME280;58760;48.716;8.962;2022-08-01T08:38:47;96572.22;;;24.05;53.27
71105;BME280;58760;48.716;8.962;2022-08-01T08:41:12;96579.16;;;24.23;51.74
71105;BME280;58760;48.716;8.962;2022-08-01T08:43:38;96573.31;;;24.36;52.36
71105;BME280;58760;48.716;8.962;2022-08-01T08:46:05;96565.66;;;24.60;51.56
71105;BME280;58760;48.716;8.962;2022-08-01T08:48:34;96564.69;;;24.81;50.59
71105;BME280;58760;48.716;8.962;2022-08-01T08:51:00;96568.22;;;24.76;50.25
71105;BME280;58760;48.716;8.962;2022-08-01T08:53:27;96581.09;;;24.59;51.35
71105;BME280;58760;48.716;8.962;2022-08-01T08:55:52;96567.47;;;24.49;51.90
71105;BME280;58760;48.716;8.962;2022-08-01T08:58:18;96578.53;;;24.42;51.75
71105;BME280;58760;48.716;8.962;2022-08-01T09:00:44;96576.13;;;24.46;51.09
71105;BME280;58760;48.716;8.962;2022-08-01T09:03:10;96579.56;;;24.36;52.29
71105;BME280;58760;48.716;8.962;2022-08-01T09:05:37;96566.38;;;24.45;50.47
71105;BME280;58760;48.716;8.962;2022-08-01T09:08:05;96579.53;;;24.31;52.01
71105;BME280;58760;48.716;8.962;2022-08-01T09:10:31;96586.44;;;24.44;51.97
71105;BME280;58760;48.716;8.962;2022-08-01T09:13:08;96583.13;;;24.42;51.86
71105;BME280;58760;48.716;8.962;2022-08-01T09:18:06;96574.47;;;24.77;51.63
71105;BME280;58760;48.716;8.962;2022-08-01T09:20:31;96572.94;;;24.91;50.61
71105;BME280;58760;48.716;8.962;2022-08-01T09:22:56;96573.00;;;25.01;50.50
71105;BME280;58760;48.716;8.962;2022-08-01T09:25:22;96579.81;;;25.04;49.60
71105;BME280;58760;48.716;8.962;2022-08-01T09:27:47;96585.28;;;25.14;50.19
71105;BME280;58760;48.716;8.962;2022-08-01T09:30:15;96580.97;;;25.18;50.61
71105;BME280;58760;48.716;8.962;2022-08-01T09:32:58;96586.69;;;25.21;49.70
71105;BME280;58760;48.716;8.962;2022-08-01T09:35:31;96581.28;;;25.21;49.03
71105;BME280;58760;48.716;8.962;2022-08-01T09:38:19;96579.63;;;25.20;49.91
71105;BME280;58760;48.716;8.962;2022-08-01T09:40:59;96580.97;;;25.18;49.59
71105;BME280;58760;48.716;8.962;2022-08-01T09:43:27;96576.66;;;25.22;48.69
71105;BME280;58760;48.716;8.962;2022-08-01T09:45:54;96583.69;;;25.13;49.61
71105;BME280;58760;48.716;8.962;2022-08-01T09:48:21;96579.56;;;25.05;49.54
71105;BME280;58760;48.716;8.962;2022-08-01T09:50:50;96578.50;;;25.11;49.30
71105;BME280;58760;48.716;8.962;2022-08-01T09:53:16;96580.44;;;25.21;49.75
71105;BME280;58760;48.716;8.962;2022-08-01T09:55:42;96567.50;;;25.43;49.16
71105;BME280;58760;48.716;8.962;2022-08-01T09:58:08;96576.84;;;25.52;48.64
71105;BME280;58760;48.716;8.962;2022-08-01T10:00:35;96576.84;;;25.52;48.79
71105;BME280;58760;48.716;8.962;2022-08-01T10:03:21;96570.31;;;25.58;48.97
71105;BME280;58760;48.716;8.962;2022-08-01T10:05:46;96575.13;;;25.46;49.21
71105;BME280;58760;48.716;8.962;2022-08-01T10:08:12;96581.78;;;25.65;48.56
71105;BME280;58760;48.716;8.962;2022-08-01T10:10:38;96570.91;;;25.70;48.09
71105;BME280;58760;48.716;8.962;2022-08-01T10:13:04;96570.38;;;25.73;47.58
71105;BME280;58760;48.716;8.962;2022-08-01T10:15:30;96567.69;;;25.83;47.53
71105;BME280;58760;48.716;8.962;2022-08-01T10:17:58;96566.59;;;25.89;47.47
71105;BME280;58760;48.716;8.962;2022-08-01T10:20:31;96557.13;;;26.07;46.83
71105;BME280;58760;48.716;8.962;2022-08-01T10:23:02;96548.69;;;26.09;46.68
71105;BME280;58760;48.716;8.962;2022-08-01T10:25:30;96551.94;;;26.00;47.08
71105;BME280;58760;48.716;8.962;2022-08-01T10:27:59;96557.94;;;26.13;47.16
71105;BME280;58760;48.716;8.962;2022-08-01T10:30:26;96556.34;;;26.17;46.79
71105;BME280;58760;48.716;8.962;2022-08-01T10:32:52;96557.41;;;26.21;46.48
71105;BME280;58760;48.716;8.962;2022-08-01T10:35:19;96553.63;;;26.17;46.98
71105;BME280;58760;48.716;8.962;2022-08-01T10:37:46;96545.69;;;26.10;47.25
71105;BME280;58760;48.716;8.962;2022-08-01T10:40:13;96547.56;;;26.05;47.28
71105;BME280;58760;48.716;8.962;2022-08-01T10:42:43;96552.50;;;26.08;47.09
71105;BME280;58760;48.716;8.962;2022-08-01T10:45:10;96552.50;;;26.08;47.35
71105;BME280;58760;48.716;8.962;2022-08-01T10:48:03;96545.66;;;25.90;47.21
71105;BME280;58760;48.716;8.962;2022-08-01T10:50:31;96540.47;;;25.73;48.44
71105;BME280;58760;48.716;8.962;2022-08-01T10:55:58;96538.34;;;26.16;46.96
71105;BME280;58760;48.716;8.962;2022-08-01T10:58:35;96532.69;;;26.42;45.46
71105;BME280;58760;48.716;8.962;2022-08-01T11:03:46;96540.56;;;26.44;45.31
71105;BME280;58760;48.716;8.962;2022-08-01T11:06:26;96537.03;;;26.33;44.11
71105;BME280;58760;48.716;8.962;2022-08-01T11:08:54;96536.72;;;26.10;45.88
71105;BME280;58760;48.716;8.962;2022-08-01T11:11:21;96539.44;;;26.10;46.48
71105;BME280;58760;48.716;8.962;2022-08-01T11:14:05;96542.97;;;26.05;46.80
71105;BME280;58760;48.716;8.962;2022-08-01T11:16:40;96541.06;;;26.00;46.06
71105;BME280;58760;48.716;8.962;2022-08-01T11:19:07;96539.44;;;26.10;45.92
71105;BME280;58760;48.716;8.962;2022-08-01T11:35:18;96526.13;;;26.18;45.17
71105;BME280;58760;48.716;8.962;2022-08-01T11:37:46;96519.28;;;26.06;45.52
71105;BME280;58760;48.716;8.962;2022-08-01T11:40:23;96517.94;;;25.93;45.88
71105;BME280;58760;48.716;8.962;2022-08-01T11:48:23;96502.16;;;26.10;44.25
71105;BME280;58760;48.716;8.962;2022-08-01T11:50:53;96494.56;;;26.27;44.43
71105;BME280;58760;48.716;8.962;2022-08-01T11:53:19;96502.16;;;26.40;44.48
71105;BME280;58760;48.716;8.962;2022-08-01T11:55:46;96494.56;;;26.42;44.90
71105;BME280;58760;48.716;8.962;2022-08-01T11:58:16;96495.91;;;26.55;44.82
71105;BME280;58760;48.716;8.962;2022-08-01T12:00:55;96488.78;;;26.74;44.41
71105;BME280;58760;48.716;8.962;2022-08-01T12:03:29;96492.06;;;27.99;40.84
71105;BME280;58760;48.716;8.962;2022-08-01T12:05:56;96498.03;;;28.07;40.85
71105;BME280;58760;48.716;8.962;2022-08-01T12:08:31;96492.50;;;28.17;40.47
71105;BME280;58760;48.716;8.962;2022-08-01T12:11:03;96488.75;;;28.41;39.77
71105;BME280;58760;48.716;8.962;2022-08-01T12:13:42;96480.75;;;28.50;38.77
71105;BME280;58760;48.716;8.962;2022-08-01T12:16:09;96481.16;;;27.99;39.72
71105;BME280;58760;48.716;8.962;2022-08-01T12:18:42;96478.06;;;27.67;40.68
71105;BME280;58760;48.716;8.962;2022-08-01T12:21:08;96479.81;;;27.48;41.40
71105;BME280;58760;48.716;8.962;2022-08-01T12:23:34;96475.50;;;27.47;41.17
71105;BME280;58760;48.716;8.962;2022-08-01T12:25:59;96477.38;;;27.41;41.91
71105;BME280;58760;48.716;8.962;2022-08-01T12:28:25;96484.78;;;27.36;41.92
71105;BME280;58760;48.716;8.962;2022-08-01T12:30:50;96487.78;;;27.83;40.26
71105;BME280;58760;48.716;8.962;2022-08-01T12:33:20;96474.91;;;28.90;38.91
71105;BME280;58760;48.716;8.962;2022-08-01T12:35:46;96474.69;;;29.72;36.82
71105;BME280;58760;48.716;8.962;2022-08-01T12:38:16;96476.28;;;30.29;36.90
71105;BME280;58760;48.716;8.962;2022-08-01T12:40:45;96463.25;;;30.85;35.05
71105;BME280;58760;48.716;8.962;2022-08-01T12:43:18;96467.09;;;31.39;34.38
71105;BME280;58760;48.716;8.962;2022-08-01T12:45:47;96462.28;;;31.72;33.17
71105;BME280;58760;48.716;8.962;2022-08-01T12:48:16;96457.34;;;31.96;32.10
71105;BME280;58760;48.716;8.962;2022-08-01T12:50:44;96457.13;;;32.06;32.97
71105;BME280;58760;48.716;8.962;2022-08-01T12:53:10;96458.44;;;32.08;33.88
71105;BME280;58760;48.716;8.962;2022-08-01T12:55:55;96457.06;;;31.07;35.08
71105;BME280;58760;48.716;8.962;2022-08-01T12:58:21;96451.13;;;29.94;35.64
71105;BME280;58760;48.716;8.962;2022-08-01T13:00:49;96458.25;;;29.11;37.30
71105;BME280;58760;48.716;8.962;2022-08-01T13:03:19;96466.50;;;28.53;38.27
71105;BME280;58760;48.716;8.962;2022-08-01T13:05:52;96462.53;;;28.12;38.93
71105;BME280;58760;48.716;8.962;2022-08-01T13:08:29;96468.19;;;28.20;39.21
71105;BME280;58760;48.716;8.962;2022-08-01T13:11:09;96455.81;;;29.70;36.81
71105;BME280;58760;48.716;8.962;2022-08-01T13:13:46;96454.91;;;30.90;34.68
71105;BME280;58760;48.716;8.962;2022-08-01T13:16:17;96461.69;;;31.75;34.15
71105;BME280;58760;48.716;8.962;2022-08-01T13:18:49;96450.31;;;32.26;33.04
71105;BME280;58760;48.716;8.962;2022-08-01T13:21:18;96450.94;;;32.67;31.81
71105;BME280;58760;48.716;8.962;2022-08-01T13:29:07;96446.31;;;31.10;33.37
71105;BME280;58760;48.716;8.962;2022-08-01T13:31:34;96447.88;;;30.25;35.16
71105;BME280;58760;48.716;8.962;2022-08-01T13:34:00;96442.84;;;30.91;34.73
71105;BME280;58760;48.716;8.962;2022-08-01T13:36:25;96442.06;;;31.68;33.00
71105;BME280;58760;48.716;8.962;2022-08-01T13:38:59;96436.94;;;31.39;33.75
71105;BME280;58760;48.716;8.962;2022-08-01T13:41:45;96448.81;;;30.66;34.79
71105;BME280;58760;48.716;8.962;2022-08-01T13:44:10;96444.66;;;29.67;36.66
71105;BME280;58760;48.716;8.962;2022-08-01T13:46:37;96442.44;;;29.07;37.93
71105;BME280;58760;48.716;8.962;2022-08-01T13:49:04;96445.75;;;29.04;37.70